BAW31 EGLL-VHHH
Flight info
| Callsign | BAW31 |
|---|---|
| Flight time | N/A |
| Altitude | 37000 |
| Route | DET L6 DVR L9 KONAN UL607 KOK DCT MATUG DCT GUBAX DCT BOREP DCT ENITA DCT ETVIS DCT DITIS DCT ERGOM DCT DINRO DCT UDROS UM859 KARDE UN644 ROLIN/N0483F370 DCT TAGAR DCT BT DCT BARAD/N0482F390 M747 SUBUT T916 LEYLA N161 GASBI/K0904F390 N161 SARIN/K0904S1190 A368 FKG W192 ESDEX W191 DNC W565 BIGUX B330 KWE W181 DUDIT A599 POU R473 SIERA |
| Aircraft | A35K/H-SBDE1E2E3GHIJ1J3J4J5J6M1M2P2RWXYZ/LB1D1 |
Departure
| Time | 2026-04-30 21:25 |
|---|---|
| Airport | London Heathrow Airport (EGLL) |
Arrival
| Time | N/A |
|---|---|
| Airport | Hong Kong International Airport (VHHH) |
| Time | Latitude | Longitude | Altitude | Speed | Heading |
|---|---|---|---|---|---|
| 2026-04-30 21:07 | 51.47274 | -0.47211 | 95 ft | 0 kts | 89° |
| 2026-04-30 21:16 | 51.47274 | -0.47246 | 92 ft | 4 kts | 89° |
| 2026-04-30 21:17 | 51.47274 | -0.47286 | 94 ft | 2 kts | 89° |
| 2026-04-30 21:17 | 51.47276 | -0.47322 | 92 ft | 4 kts | 113° |
| 2026-04-30 21:17 | 51.47291 | -0.47351 | 92 ft | 4 kts | 166° |
| 2026-04-30 21:17 | 51.47316 | -0.47354 | 91 ft | 4 kts | 179° |
| 2026-04-30 21:18 | 51.47336 | -0.47354 | 92 ft | 0 kts | 179° |
| 2026-04-30 21:20 | 51.47335 | -0.47354 | 92 ft | 1 kts | 179° |
| 2026-04-30 21:20 | 51.47301 | -0.47354 | 93 ft | 10 kts | 179° |
| 2026-04-30 21:21 | 51.47202 | -0.47352 | 94 ft | 18 kts | 179° |
| 2026-04-30 21:21 | 51.47064 | -0.47351 | 92 ft | 21 kts | 180° |
| 2026-04-30 21:21 | 51.46782 | -0.47349 | 92 ft | 19 kts | 179° |
| 2026-04-30 21:22 | 51.46676 | -0.47363 | 96 ft | 12 kts | 216° |
| 2026-04-30 21:22 | 51.46654 | -0.48036 | 92 ft | 26 kts | 270° |
| 2026-04-30 21:23 | 51.46653 | -0.48328 | 95 ft | 26 kts | 269° |
| 2026-04-30 21:23 | 51.46651 | -0.48575 | 93 ft | 17 kts | 270° |
| 2026-04-30 21:23 | 51.46511 | -0.48766 | 95 ft | 16 kts | 149° |
| 2026-04-30 21:24 | 51.46478 | -0.48601 | 95 ft | 19 kts | 89° |
| 2026-04-30 21:24 | 51.46480 | -0.48135 | 94 ft | 74 kts | 90° |
| 2026-04-30 21:24 | 51.46483 | -0.46935 | 97 ft | 140 kts | 90° |
| 2026-04-30 21:24 | 51.46493 | -0.45104 | 335 ft | 175 kts | 88° |
| 2026-04-30 21:25 | 51.46165 | -0.41336 | 1868 ft | 176 kts | 121° |
| 2026-04-30 21:25 | 51.45502 | -0.39614 | 2271 ft | 188 kts | 125° |
| 2026-04-30 21:25 | 51.44806 | -0.37721 | 2567 ft | 209 kts | 118° |
| 2026-04-30 21:26 | 51.43716 | -0.32988 | 3430 ft | 238 kts | 112° |
| 2026-04-30 21:26 | 51.43183 | -0.30430 | 3982 ft | 246 kts | 112° |
| 2026-04-30 21:27 | 51.42287 | -0.24955 | 5095 ft | 262 kts | 105° |
| 2026-04-30 21:27 | 51.41907 | -0.22112 | 5692 ft | 267 kts | 104° |
| 2026-04-30 21:27 | 51.41516 | -0.19202 | 6417 ft | 268 kts | 104° |
| 2026-04-30 21:28 | 51.40719 | -0.13325 | 7813 ft | 272 kts | 104° |
| 2026-04-30 21:28 | 51.40311 | -0.10349 | 8541 ft | 274 kts | 105° |
| 2026-04-30 21:28 | 51.39478 | -0.04338 | 10006 ft | 279 kts | 105° |
| 2026-04-30 21:29 | 51.39052 | -0.01280 | 10567 ft | 287 kts | 105° |
| 2026-04-30 21:29 | 51.37632 | 0.08879 | 11458 ft | 336 kts | 105° |
| 2026-04-30 21:30 | 51.36566 | 0.16492 | 11998 ft | 365 kts | 105° |
| 2026-04-30 21:31 | 51.35801 | 0.21950 | 12474 ft | 378 kts | 105° |